sensor_id;sensor_type;location;lat;lon;timestamp;P1;durP1;ratioP1;P2;durP2;ratioP2
50769;SDS011;36740;48.698;11.472;2023-07-24T04:02:21;12.98;;;7.88;;
50769;SDS011;36740;48.698;11.472;2023-07-24T04:41:12;11.45;;;7.70;;
50769;SDS011;36740;48.698;11.472;2023-07-24T06:49:42;21.52;;;8.25;;
50769;SDS011;36740;48.698;11.472;2023-07-24T06:52:51;16.85;;;8.90;;
50769;SDS011;36740;48.698;11.472;2023-07-24T06:55:46;15.68;;;7.40;;
50769;SDS011;36740;48.698;11.472;2023-07-24T07:02:10;20.67;;;8.57;;
50769;SDS011;36740;48.698;11.472;2023-07-24T07:04:56;13.70;;;7.32;;
50769;SDS011;36740;48.698;11.472;2023-07-24T07:07:42;24.13;;;10.50;;
50769;SDS011;36740;48.698;11.472;2023-07-24T07:10:27;14.90;;;8.38;;
50769;SDS011;36740;48.698;11.472;2023-07-24T07:13:13;19.83;;;8.93;;
50769;SDS011;36740;48.698;11.472;2023-07-24T07:15:59;16.05;;;9.00;;
50769;SDS011;36740;48.698;11.472;2023-07-24T07:18:44;16.42;;;9.77;;
50769;SDS011;36740;48.698;11.472;2023-07-24T07:21:30;16.98;;;9.15;;
50769;SDS011;36740;48.698;11.472;2023-07-24T07:24:16;19.02;;;9.73;;
50769;SDS011;36740;48.698;11.472;2023-07-24T07:27:01;22.38;;;8.73;;
50769;SDS011;36740;48.698;11.472;2023-07-24T07:29:47;19.05;;;9.32;;
50769;SDS011;36740;48.698;11.472;2023-07-24T07:32:32;15.25;;;8.68;;
50769;SDS011;36740;48.698;11.472;2023-07-24T07:35:18;10.52;;;6.90;;
50769;SDS011;36740;48.698;11.472;2023-07-24T07:38:04;15.38;;;8.57;;
50769;SDS011;36740;48.698;11.472;2023-07-24T07:40:49;11.82;;;7.43;;
50769;SDS011;36740;48.698;11.472;2023-07-24T07:43:35;21.25;;;7.97;;
50769;SDS011;36740;48.698;11.472;2023-07-24T07:46:21;17.45;;;8.88;;
50769;SDS011;36740;48.698;11.472;2023-07-24T07:49:07;12.55;;;6.78;;
50769;SDS011;36740;48.698;11.472;2023-07-24T07:51:52;16.77;;;8.80;;
50769;SDS011;36740;48.698;11.472;2023-07-24T07:54:38;16.60;;;7.38;;
50769;SDS011;36740;48.698;11.472;2023-07-24T07:57:24;11.40;;;6.72;;
50769;SDS011;36740;48.698;11.472;2023-07-24T08:00:09;14.38;;;8.65;;
50769;SDS011;36740;48.698;11.472;2023-07-24T08:02:55;16.88;;;7.57;;
50769;SDS011;36740;48.698;11.472;2023-07-24T08:05:41;12.55;;;7.20;;
50769;SDS011;36740;48.698;11.472;2023-07-24T08:08:26;12.48;;;6.40;;
50769;SDS011;36740;48.698;11.472;2023-07-24T08:11:12;13.85;;;7.10;;
50769;SDS011;36740;48.698;11.472;2023-07-24T08:13:57;12.43;;;5.70;;
50769;SDS011;36740;48.698;11.472;2023-07-24T08:16:43;13.20;;;5.70;;
50769;SDS011;36740;48.698;11.472;2023-07-24T08:19:29;8.18;;;4.38;;
50769;SDS011;36740;48.698;11.472;2023-07-24T08:22:17;12.82;;;5.13;;
50769;SDS011;36740;48.698;11.472;2023-07-24T08:25:05;9.05;;;4.93;;
50769;SDS011;36740;48.698;11.472;2023-07-24T08:27:50;12.00;;;5.07;;
50769;SDS011;36740;48.698;11.472;2023-07-24T08:30:37;8.70;;;4.80;;
50769;SDS011;36740;48.698;11.472;2023-07-24T08:33:23;8.65;;;4.03;;
50769;SDS011;36740;48.698;11.472;2023-07-24T08:36:08;15.80;;;5.78;;
50769;SDS011;36740;48.698;11.472;2023-07-24T08:38:57;10.95;;;4.28;;
50769;SDS011;36740;48.698;11.472;2023-07-24T08:41:43;7.55;;;4.50;;
50769;SDS011;36740;48.698;11.472;2023-07-24T08:44:28;19.70;;;6.78;;
50769;SDS011;36740;48.698;11.472;2023-07-24T08:47:16;10.02;;;3.10;;
50769;SDS011;36740;48.698;11.472;2023-07-24T08:50:06;7.50;;;4.15;;
50769;SDS011;36740;48.698;11.472;2023-07-24T08:52:52;5.73;;;3.30;;
50769;SDS011;36740;48.698;11.472;2023-07-24T08:55:38;8.20;;;2.50;;
50769;SDS011;36740;48.698;11.472;2023-07-24T08:58:24;6.63;;;4.38;;
50769;SDS011;36740;48.698;11.472;2023-07-24T09:01:31;10.45;;;5.30;;
50769;SDS011;36740;48.698;11.472;2023-07-24T11:18:25;8.85;;;4.07;;
50769;SDS011;36740;48.698;11.472;2023-07-24T11:28:38;8.90;;;4.82;;
50769;SDS011;36740;48.698;11.472;2023-07-24T11:50:07;11.65;;;5.03;;
50769;SDS011;36740;48.698;11.472;2023-07-24T11:59:56;12.18;;;4.88;;
50769;SDS011;36740;48.698;11.472;2023-07-24T12:02:49;11.52;;;4.05;;
50769;SDS011;36740;48.698;11.472;2023-07-24T12:05:38;11.38;;;4.65;;
50769;SDS011;36740;48.698;11.472;2023-07-24T12:08:31;9.93;;;4.30;;
50769;SDS011;36740;48.698;11.472;2023-07-24T12:11:18;9.10;;;4.28;;
50769;SDS011;36740;48.698;11.472;2023-07-24T12:14:06;9.47;;;4.83;;
50769;SDS011;36740;48.698;11.472;2023-07-24T12:17:01;7.10;;;3.80;;
50769;SDS011;36740;48.698;11.472;2023-07-24T12:19:47;9.48;;;4.35;;
50769;SDS011;36740;48.698;11.472;2023-07-24T12:22:33;16.70;;;5.40;;
50769;SDS011;36740;48.698;11.472;2023-07-24T12:25:19;9.18;;;4.35;;
50769;SDS011;36740;48.698;11.472;2023-07-24T12:28:05;11.63;;;4.25;;
50769;SDS011;36740;48.698;11.472;2023-07-24T12:30:50;13.35;;;5.10;;
50769;SDS011;36740;48.698;11.472;2023-07-24T12:33:36;12.35;;;6.38;;
50769;SDS011;36740;48.698;11.472;2023-07-24T12:36:22;13.73;;;4.95;;
50769;SDS011;36740;48.698;11.472;2023-07-24T12:39:07;9.00;;;4.63;;
50769;SDS011;36740;48.698;11.472;2023-07-24T12:41:53;9.75;;;5.03;;
50769;SDS011;36740;48.698;11.472;2023-07-24T12:44:42;8.90;;;4.45;;
50769;SDS011;36740;48.698;11.472;2023-07-24T12:47:27;7.32;;;4.43;;
50769;SDS011;36740;48.698;11.472;2023-07-24T12:50:13;8.68;;;3.50;;
50769;SDS011;36740;48.698;11.472;2023-07-24T12:52:59;9.77;;;5.65;;
50769;SDS011;36740;48.698;11.472;2023-07-24T12:55:44;7.97;;;3.47;;
50769;SDS011;36740;48.698;11.472;2023-07-24T12:58:35;6.78;;;3.55;;
50769;SDS011;36740;48.698;11.472;2023-07-24T13:01:21;11.77;;;4.68;;
50769;SDS011;36740;48.698;11.472;2023-07-24T13:04:08;15.85;;;4.82;;
50769;SDS011;36740;48.698;11.472;2023-07-24T13:06:54;10.45;;;3.95;;
50769;SDS011;36740;48.698;11.472;2023-07-24T13:09:39;12.07;;;6.28;;
50769;SDS011;36740;48.698;11.472;2023-07-24T13:12:25;6.88;;;3.95;;
50769;SDS011;36740;48.698;11.472;2023-07-24T13:15:11;7.78;;;3.65;;
50769;SDS011;36740;48.698;11.472;2023-07-24T13:17:56;9.45;;;4.47;;
50769;SDS011;36740;48.698;11.472;2023-07-24T13:20:42;8.18;;;3.97;;
50769;SDS011;36740;48.698;11.472;2023-07-24T13:23:28;13.18;;;6.45;;
50769;SDS011;36740;48.698;11.472;2023-07-24T13:26:13;11.60;;;5.13;;
50769;SDS011;36740;48.698;11.472;2023-07-24T13:28:59;6.65;;;3.42;;
50769;SDS011;36740;48.698;11.472;2023-07-24T13:31:44;5.90;;;2.90;;
50769;SDS011;36740;48.698;11.472;2023-07-24T13:34:30;10.88;;;4.53;;
50769;SDS011;36740;48.698;11.472;2023-07-24T13:37:16;7.88;;;4.43;;
50769;SDS011;36740;48.698;11.472;2023-07-24T13:40:02;7.03;;;3.75;;
50769;SDS011;36740;48.698;11.472;2023-07-24T13:42:50;7.82;;;3.63;;
50769;SDS011;36740;48.698;11.472;2023-07-24T13:45:36;11.75;;;4.47;;
50769;SDS011;36740;48.698;11.472;2023-07-24T13:48:22;7.38;;;4.00;;
50769;SDS011;36740;48.698;11.472;2023-07-24T13:51:07;9.88;;;4.35;;
50769;SDS011;36740;48.698;11.472;2023-07-24T13:53:53;9.40;;;4.55;;
50769;SDS011;36740;48.698;11.472;2023-07-24T13:56:39;9.40;;;4.10;;
50769;SDS011;36740;48.698;11.472;2023-07-24T13:59:25;8.95;;;4.30;;
50769;SDS011;36740;48.698;11.472;2023-07-24T14:02:10;9.25;;;4.25;;
50769;SDS011;36740;48.698;11.472;2023-07-24T14:04:57;9.57;;;3.42;;
50769;SDS011;36740;48.698;11.472;2023-07-24T14:07:43;7.30;;;3.85;;
50769;SDS011;36740;48.698;11.472;2023-07-24T14:10:31;7.32;;;4.28;;
50769;SDS011;36740;48.698;11.472;2023-07-24T14:13:17;7.63;;;4.10;;
50769;SDS011;36740;48.698;11.472;2023-07-24T14:16:03;8.77;;;3.50;;
50769;SDS011;36740;48.698;11.472;2023-07-24T14:18:50;6.00;;;4.07;;
50769;SDS011;36740;48.698;11.472;2023-07-24T14:21:36;7.03;;;3.08;;
50769;SDS011;36740;48.698;11.472;2023-07-24T14:24:22;6.45;;;3.38;;
50769;SDS011;36740;48.698;11.472;2023-07-24T14:27:07;7.47;;;3.70;;
50769;SDS011;36740;48.698;11.472;2023-07-24T14:29:53;7.13;;;3.67;;
50769;SDS011;36740;48.698;11.472;2023-07-24T14:32:39;8.55;;;4.43;;
50769;SDS011;36740;48.698;11.472;2023-07-24T14:35:29;7.03;;;3.95;;
50769;SDS011;36740;48.698;11.472;2023-07-24T14:38:14;7.07;;;3.80;;
50769;SDS011;36740;48.698;11.472;2023-07-24T14:41:02;8.43;;;4.10;;
50769;SDS011;36740;48.698;11.472;2023-07-24T14:43:48;6.32;;;4.18;;
50769;SDS011;36740;48.698;11.472;2023-07-24T14:46:36;6.13;;;3.08;;
50769;SDS011;36740;48.698;11.472;2023-07-24T14:49:22;8.35;;;4.47;;
50769;SDS011;36740;48.698;11.472;2023-07-24T14:52:07;9.80;;;3.35;;
50769;SDS011;36740;48.698;11.472;2023-07-24T14:54:58;9.35;;;4.80;;
50769;SDS011;36740;48.698;11.472;2023-07-24T14:57:44;7.22;;;4.30;;
50769;SDS011;36740;48.698;11.472;2023-07-24T15:00:31;9.55;;;3.47;;
50769;SDS011;36740;48.698;11.472;2023-07-24T15:03:17;9.93;;;4.75;;
50769;SDS011;36740;48.698;11.472;2023-07-24T15:06:02;6.82;;;4.07;;
50769;SDS011;36740;48.698;11.472;2023-07-24T15:08:56;6.35;;;3.47;;
50769;SDS011;36740;48.698;11.472;2023-07-24T15:11:42;6.55;;;3.47;;
50769;SDS011;36740;48.698;11.472;2023-07-24T15:14:28;8.18;;;4.43;;
50769;SDS011;36740;48.698;11.472;2023-07-24T15:17:13;5.38;;;3.55;;
50769;SDS011;36740;48.698;11.472;2023-07-24T15:20:00;7.88;;;3.45;;
50769;SDS011;36740;48.698;11.472;2023-07-24T15:22:46;8.52;;;4.82;;
50769;SDS011;36740;48.698;11.472;2023-07-24T15:25:32;11.52;;;4.75;;
50769;SDS011;36740;48.698;11.472;2023-07-24T15:28:17;10.23;;;4.15;;
50769;SDS011;36740;48.698;11.472;2023-07-24T15:31:03;7.55;;;4.20;;
50769;SDS011;36740;48.698;11.472;2023-07-24T15:33:49;8.20;;;4.20;;
50769;SDS011;36740;48.698;11.472;2023-07-24T15:36:35;9.30;;;4.57;;
50769;SDS011;36740;48.698;11.472;2023-07-24T15:39:21;9.20;;;4.60;;
50769;SDS011;36740;48.698;11.472;2023-07-24T15:42:07;9.52;;;4.95;;
50769;SDS011;36740;48.698;11.472;2023-07-24T15:44:53;12.85;;;4.50;;
50769;SDS011;36740;48.698;11.472;2023-07-24T15:51:02;7.60;;;3.50;;
50769;SDS011;36740;48.698;11.472;2023-07-24T15:53:56;11.50;;;4.97;;
50769;SDS011;36740;48.698;11.472;2023-07-24T15:59:59;10.00;;;4.60;;
50769;SDS011;36740;48.698;11.472;2023-07-24T16:02:53;11.38;;;3.08;;
50769;SDS011;36740;48.698;11.472;2023-07-24T16:05:59;4.55;;;2.58;;
50769;SDS011;36740;48.698;11.472;2023-07-24T16:19:29;5.38;;;2.63;;
50769;SDS011;36740;48.698;11.472;2023-07-24T16:22:48;5.40;;;2.72;;
50769;SDS011;36740;48.698;11.472;2023-07-24T16:32:27;6.40;;;2.67;;
50769;SDS011;36740;48.698;11.472;2023-07-24T16:41:42;3.95;;;1.98;;
50769;SDS011;36740;48.698;11.472;2023-07-24T16:44:58;8.55;;;3.53;;
50769;SDS011;36740;48.698;11.472;2023-07-24T16:51:29;4.18;;;2.53;;
50769;SDS011;36740;48.698;11.472;2023-07-24T17:01:39;6.13;;;2.90;;
50769;SDS011;36740;48.698;11.472;2023-07-24T17:08:04;4.43;;;2.30;;
50769;SDS011;36740;48.698;11.472;2023-07-24T17:11:04;6.10;;;2.50;;
50769;SDS011;36740;48.698;11.472;2023-07-24T17:13:52;5.30;;;2.38;;
50769;SDS011;36740;48.698;11.472;2023-07-24T17:20:50;5.10;;;2.13;;
50769;SDS011;36740;48.698;11.472;2023-07-24T17:27:45;5.15;;;2.85;;
50769;SDS011;36740;48.698;11.472;2023-07-24T17:30:47;9.15;;;4.20;;
50769;SDS011;36740;48.698;11.472;2023-07-24T17:38:02;3.85;;;2.08;;
50769;SDS011;36740;48.698;11.472;2023-07-24T17:41:11;6.00;;;2.70;;
50769;SDS011;36740;48.698;11.472;2023-07-24T17:51:09;6.35;;;2.28;;
50769;SDS011;36740;48.698;11.472;2023-07-24T17:57:51;2.03;;;1.63;;
50769;SDS011;36740;48.698;11.472;2023-07-24T18:01:02;5.47;;;2.53;;
50769;SDS011;36740;48.698;11.472;2023-07-24T18:03:48;8.07;;;3.35;;
50769;SDS011;36740;48.698;11.472;2023-07-24T18:06:48;5.35;;;3.20;;
50769;SDS011;36740;48.698;11.472;2023-07-24T18:09:33;3.63;;;2.03;;
50769;SDS011;36740;48.698;11.472;2023-07-24T18:12:26;3.75;;;2.00;;
50769;SDS011;36740;48.698;11.472;2023-07-24T18:15:12;4.95;;;2.35;;
50769;SDS011;36740;48.698;11.472;2023-07-24T18:17:57;5.65;;;2.15;;
50769;SDS011;36740;48.698;11.472;2023-07-24T18:20:43;4.70;;;2.30;;
50769;SDS011;36740;48.698;11.472;2023-07-24T18:23:29;6.28;;;2.08;;
50769;SDS011;36740;48.698;11.472;2023-07-24T18:26:14;5.45;;;2.42;;
50769;SDS011;36740;48.698;11.472;2023-07-24T18:29:01;4.85;;;2.35;;
50769;SDS011;36740;48.698;11.472;2023-07-24T18:31:46;7.40;;;2.83;;
50769;SDS011;36740;48.698;11.472;2023-07-24T18:34:32;3.65;;;2.22;;
50769;SDS011;36740;48.698;11.472;2023-07-24T18:37:18;4.50;;;2.38;;
50769;SDS011;36740;48.698;11.472;2023-07-24T18:40:03;5.78;;;3.72;;
50769;SDS011;36740;48.698;11.472;2023-07-24T18:42:49;6.00;;;2.70;;
50769;SDS011;36740;48.698;11.472;2023-07-24T18:45:35;5.85;;;2.45;;
50769;SDS011;36740;48.698;11.472;2023-07-24T18:48:20;5.95;;;2.83;;
50769;SDS011;36740;48.698;11.472;2023-07-24T18:51:06;6.30;;;2.63;;
50769;SDS011;36740;48.698;11.472;2023-07-24T18:53:53;6.85;;;2.63;;
50769;SDS011;36740;48.698;11.472;2023-07-24T18:56:39;7.93;;;3.03;;
50769;SDS011;36740;48.698;11.472;2023-07-24T18:59:25;5.20;;;2.35;;
50769;SDS011;36740;48.698;11.472;2023-07-24T19:02:11;7.82;;;2.72;;
50769;SDS011;36740;48.698;11.472;2023-07-24T19:04:56;6.75;;;3.10;;
50769;SDS011;36740;48.698;11.472;2023-07-24T19:07:43;4.25;;;2.92;;
50769;SDS011;36740;48.698;11.472;2023-07-24T19:10:28;8.60;;;2.53;;
50769;SDS011;36740;48.698;11.472;2023-07-24T19:13:14;7.55;;;3.75;;
50769;SDS011;36740;48.698;11.472;2023-07-24T19:16:03;8.73;;;3.35;;
50769;SDS011;36740;48.698;11.472;2023-07-24T19:18:48;3.70;;;2.55;;
50769;SDS011;36740;48.698;11.472;2023-07-24T19:21:34;4.07;;;2.45;;
50769;SDS011;36740;48.698;11.472;2023-07-24T19:24:20;4.55;;;2.20;;
50769;SDS011;36740;48.698;11.472;2023-07-24T19:27:06;9.93;;;4.43;;
50769;SDS011;36740;48.698;11.472;2023-07-24T19:29:51;3.50;;;2.58;;
50769;SDS011;36740;48.698;11.472;2023-07-24T19:32:37;4.20;;;1.85;;
50769;SDS011;36740;48.698;11.472;2023-07-24T19:35:23;4.80;;;2.38;;
50769;SDS011;36740;48.698;11.472;2023-07-24T19:38:08;6.88;;;2.78;;
50769;SDS011;36740;48.698;11.472;2023-07-24T19:40:56;7.20;;;3.10;;
50769;SDS011;36740;48.698;11.472;2023-07-24T19:43:42;4.72;;;2.30;;
50769;SDS011;36740;48.698;11.472;2023-07-24T19:46:28;7.05;;;3.38;;
50769;SDS011;36740;48.698;11.472;2023-07-24T19:49:14;8.43;;;2.38;;
50769;SDS011;36740;48.698;11.472;2023-07-24T19:52:00;4.22;;;2.20;;
50769;SDS011;36740;48.698;11.472;2023-07-24T19:54:48;4.70;;;2.60;;
50769;SDS011;36740;48.698;11.472;2023-07-24T19:57:37;5.60;;;3.08;;
50769;SDS011;36740;48.698;11.472;2023-07-24T20:00:23;5.25;;;2.40;;
50769;SDS011;36740;48.698;11.472;2023-07-24T20:03:11;5.65;;;3.38;;
50769;SDS011;36740;48.698;11.472;2023-07-24T20:05:58;3.42;;;1.77;;
50769;SDS011;36740;48.698;11.472;2023-07-24T20:08:44;4.55;;;2.78;;
50769;SDS011;36740;48.698;11.472;2023-07-24T20:11:30;5.30;;;2.20;;
50769;SDS011;36740;48.698;11.472;2023-07-24T20:14:15;4.55;;;2.58;;
50769;SDS011;36740;48.698;11.472;2023-07-24T20:17:01;4.22;;;2.10;;
50769;SDS011;36740;48.698;11.472;2023-07-24T20:19:46;9.65;;;2.95;;
50769;SDS011;36740;48.698;11.472;2023-07-24T20:22:35;4.72;;;2.05;;
50769;SDS011;36740;48.698;11.472;2023-07-24T20:25:28;4.22;;;2.20;;
50769;SDS011;36740;48.698;11.472;2023-07-24T20:28:14;10.45;;;3.20;;
50769;SDS011;36740;48.698;11.472;2023-07-24T20:30:59;5.20;;;3.53;;
50769;SDS011;36740;48.698;11.472;2023-07-24T20:33:52;9.07;;;2.65;;
50769;SDS011;36740;48.698;11.472;2023-07-24T20:36:38;8.18;;;3.30;;
50769;SDS011;36740;48.698;11.472;2023-07-24T20:39:25;6.65;;;3.60;;
50769;SDS011;36740;48.698;11.472;2023-07-24T20:42:15;3.80;;;2.60;;
50769;SDS011;36740;48.698;11.472;2023-07-24T20:45:01;4.63;;;2.65;;
50769;SDS011;36740;48.698;11.472;2023-07-24T20:47:46;3.92;;;2.70;;
50769;SDS011;36740;48.698;11.472;2023-07-24T20:50:38;7.75;;;3.33;;
50769;SDS011;36740;48.698;11.472;2023-07-24T20:53:24;5.00;;;2.63;;
50769;SDS011;36740;48.698;11.472;2023-07-24T20:56:11;4.90;;;2.45;;
50769;SDS011;36740;48.698;11.472;2023-07-24T20:58:58;9.13;;;4.40;;
50769;SDS011;36740;48.698;11.472;2023-07-24T21:01:43;4.20;;;2.42;;
50769;SDS011;36740;48.698;11.472;2023-07-24T21:04:29;3.20;;;2.40;;
50769;SDS011;36740;48.698;11.472;2023-07-24T21:07:14;5.05;;;3.03;;
50769;SDS011;36740;48.698;11.472;2023-07-24T21:10:00;3.28;;;2.28;;
50769;SDS011;36740;48.698;11.472;2023-07-24T21:12:45;11.48;;;4.75;;
50769;SDS011;36740;48.698;11.472;2023-07-24T21:15:32;7.35;;;3.60;;
50769;SDS011;36740;48.698;11.472;2023-07-24T21:18:17;11.65;;;4.32;;
50769;SDS011;36740;48.698;11.472;2023-07-24T21:21:03;5.80;;;3.30;;
50769;SDS011;36740;48.698;11.472;2023-07-24T21:23:49;6.13;;;3.45;;
50769;SDS011;36740;48.698;11.472;2023-07-24T21:26:34;6.28;;;3.63;;
50769;SDS011;36740;48.698;11.472;2023-07-24T21:29:20;6.50;;;3.15;;
50769;SDS011;36740;48.698;11.472;2023-07-24T21:32:06;6.10;;;3.78;;
50769;SDS011;36740;48.698;11.472;2023-07-24T21:34:51;7.95;;;3.28;;
50769;SDS011;36740;48.698;11.472;2023-07-24T21:37:37;14.52;;;2.88;;
50769;SDS011;36740;48.698;11.472;2023-07-24T21:40:24;4.10;;;2.63;;
50769;SDS011;36740;48.698;11.472;2023-07-24T21:43:09;5.93;;;3.38;;
50769;SDS011;36740;48.698;11.472;2023-07-24T21:45:57;7.95;;;3.42;;
50769;SDS011;36740;48.698;11.472;2023-07-24T21:48:43;6.60;;;3.72;;
50769;SDS011;36740;48.698;11.472;2023-07-24T21:51:29;7.35;;;3.80;;
50769;SDS011;36740;48.698;11.472;2023-07-24T21:54:14;4.03;;;2.58;;
50769;SDS011;36740;48.698;11.472;2023-07-24T21:57:00;5.15;;;2.67;;
50769;SDS011;36740;48.698;11.472;2023-07-24T21:59:51;5.30;;;2.97;;
50769;SDS011;36740;48.698;11.472;2023-07-24T22:02:50;9.95;;;3.35;;
50769;SDS011;36740;48.698;11.472;2023-07-24T22:05:36;5.72;;;3.03;;
50769;SDS011;36740;48.698;11.472;2023-07-24T22:08:22;3.95;;;2.45;;
50769;SDS011;36740;48.698;11.472;2023-07-24T22:11:08;6.88;;;3.20;;
50769;SDS011;36740;48.698;11.472;2023-07-24T22:13:54;10.15;;;3.80;;
50769;SDS011;36740;48.698;11.472;2023-07-24T22:16:39;7.35;;;3.40;;
50769;SDS011;36740;48.698;11.472;2023-07-24T22:19:25;4.78;;;2.90;;
50769;SDS011;36740;48.698;11.472;2023-07-24T22:22:11;5.93;;;2.90;;
50769;SDS011;36740;48.698;11.472;2023-07-24T22:24:56;7.85;;;2.42;;
50769;SDS011;36740;48.698;11.472;2023-07-24T22:27:42;4.95;;;2.72;;
50769;SDS011;36740;48.698;11.472;2023-07-24T22:30:27;8.27;;;3.90;;
50769;SDS011;36740;48.698;11.472;2023-07-24T22:33:13;6.80;;;2.95;;
50769;SDS011;36740;48.698;11.472;2023-07-24T22:35:59;5.15;;;2.67;;
50769;SDS011;36740;48.698;11.472;2023-07-24T22:38:44;6.03;;;2.97;;
50769;SDS011;36740;48.698;11.472;2023-07-24T22:41:32;5.57;;;3.65;;
50769;SDS011;36740;48.698;11.472;2023-07-24T22:44:17;8.05;;;3.72;;
50769;SDS011;36740;48.698;11.472;2023-07-24T22:47:03;8.15;;;2.88;;
50769;SDS011;36740;48.698;11.472;2023-07-24T22:49:49;6.72;;;3.13;;
50769;SDS011;36740;48.698;11.472;2023-07-24T22:52:34;6.75;;;3.80;;
50769;SDS011;36740;48.698;11.472;2023-07-24T22:55:20;9.57;;;3.90;;
50769;SDS011;36740;48.698;11.472;2023-07-24T22:58:05;3.83;;;2.30;;
50769;SDS011;36740;48.698;11.472;2023-07-24T23:00:52;7.32;;;3.85;;
50769;SDS011;36740;48.698;11.472;2023-07-24T23:03:38;6.75;;;3.97;;
50769;SDS011;36740;48.698;11.472;2023-07-24T23:06:23;11.90;;;3.28;;
50769;SDS011;36740;48.698;11.472;2023-07-24T23:09:09;6.07;;;2.78;;
50769;SDS011;36740;48.698;11.472;2023-07-24T23:11:55;5.88;;;4.00;;
50769;SDS011;36740;48.698;11.472;2023-07-24T23:14:45;7.82;;;4.00;;
50769;SDS011;36740;48.698;11.472;2023-07-24T23:17:31;5.55;;;3.65;;
50769;SDS011;36740;48.698;11.472;2023-07-24T23:20:16;19.95;;;3.75;;
50769;SDS011;36740;48.698;11.472;2023-07-24T23:23:02;7.03;;;4.38;;
50769;SDS011;36740;48.698;11.472;2023-07-24T23:25:48;8.05;;;3.70;;
50769;SDS011;36740;48.698;11.472;2023-07-24T23:28:33;10.13;;;4.28;;
50769;SDS011;36740;48.698;11.472;2023-07-24T23:31:19;8.73;;;4.50;;
50769;SDS011;36740;48.698;11.472;2023-07-24T23:34:05;7.38;;;3.40;;
50769;SDS011;36740;48.698;11.472;2023-07-24T23:36:50;5.85;;;3.97;;
50769;SDS011;36740;48.698;11.472;2023-07-24T23:39:54;6.82;;;3.50;;
50769;SDS011;36740;48.698;11.472;2023-07-24T23:42:46;7.43;;;3.92;;
50769;SDS011;36740;48.698;11.472;2023-07-24T23:45:32;6.78;;;3.63;;
50769;SDS011;36740;48.698;11.472;2023-07-24T23:48:18;7.28;;;3.22;;
50769;SDS011;36740;48.698;11.472;2023-07-24T23:51:04;5.78;;;3.25;;
50769;SDS011;36740;48.698;11.472;2023-07-24T23:53:49;8.70;;;3.63;;
50769;SDS011;36740;48.698;11.472;2023-07-24T23:56:35;6.57;;;1.90;;
50769;SDS011;36740;48.698;11.472;2023-07-24T23:59:21;7.95;;;3.70;;
